Terminal Aerodrome Forecast
Issued by NWS

Home | Current Version | Previous Version | Graphics & Text | Print | Product List | Glossary On
Versions: 1 2 3 4 5 6 7 8 9 10 11 12 13 14 15 16 17 18 19 20 21 22 23 24
172
FTUS43 KPAH 171728
TAFCGI
TAF
KCGI 171728Z 1718/1818 24006KT P6SM -SHRA SCT050 BKN250
     FM171900 23011G18KT P6SM SCT050
     FM180000 24007KT P6SM FEW050
     FM180700 VRB03KT 6SM BR SKC
     FM180900 00000KT 2SM BR SKC
     FM181400 30004KT P6SM SKC=

USA.gov is the U.S. government's official web portal to all federal, state and local government web resources and services.